Time;durP1;ratioP1;P1;durP2;ratioP2;P2;SDS_P1;SDS_P2;PMS_P1;PMS_P2;Temp;Humidity;BMP_temperature;BMP_pressure;BME280_temperature;BME280_humidity;BME280_pressure;Samples;Min_cycle;Max_cycle;Signal;HPM_P1;HPM_P2
2022/10/31 00:01:15;;;;;;;;;4.00;4.00;;;;;18.39;58.43;98817.00;4896467;28;104716;-59
2022/10/31 00:03:42;;;;;;;;;5.00;5.00;;;;;18.38;58.03;98816.16;4894637;28;102509;-59
2022/10/31 00:06:09;;;;;;;;;5.33;5.33;;;;;18.37;58.22;98825.44;4895744;28;103063;-59
2022/10/31 00:08:36;;;;;;;;;3.33;3.33;;;;;18.37;58.32;98814.50;4891334;28;104017;-59
2022/10/31 00:11:03;;;;;;;;;3.33;3.33;;;;;18.37;57.78;98822.72;4895000;28;103092;-59
2022/10/31 00:13:31;;;;;;;;;4.00;4.00;;;;;18.37;57.98;98819.97;4899088;28;102409;-59
2022/10/31 00:15:58;;;;;;;;;4.67;4.00;;;;;18.36;57.63;98818.34;4900782;28;101947;-59
2022/10/31 00:18:25;;;;;;;;;4.00;3.00;;;;;18.36;58.07;98817.50;4912988;28;104194;-59
2022/10/31 00:21:00;;;;;;;;;3.33;3.00;;;;;18.37;57.95;98814.50;4901067;28;101817;-59
2022/10/31 00:23:27;;;;;;;;;4.00;4.00;;;;;18.36;57.85;98818.34;4894959;28;102152;-59
2022/10/31 00:25:59;;;;;;;;;4.33;4.33;;;;;18.36;57.99;98817.50;4901108;28;102386;-59
2022/10/31 00:28:26;;;;;;;;;3.67;3.00;;;;;18.36;58.27;98818.34;4898089;28;104006;-59
2022/10/31 00:30:53;;;;;;;;;6.00;4.00;;;;;18.35;58.35;98813.94;4899162;28;102452;-59
2022/10/31 00:33:20;;;;;;;;;5.00;5.00;;;;;18.35;58.26;98816.66;4901108;28;102893;-59
2022/10/31 00:35:50;;;;;;;;;3.67;3.00;;;;;18.35;57.78;98811.19;4898877;28;102171;-59
2022/10/31 00:38:17;;;;;;;;;2.00;2.00;;;;;18.34;58.25;98815.00;4896150;28;108591;-59
2022/10/31 00:40:44;;;;;;;;;3.67;2.67;;;;;18.35;58.00;98813.09;4897300;28;102360;-59
2022/10/31 00:43:11;;;;;;;;;5.00;2.33;;;;;18.33;57.68;98818.81;4897314;28;102443;-59
2022/10/31 00:45:43;;;;;;;;;3.00;3.00;;;;;18.33;58.10;98813.34;4898521;28;102395;-59
2022/10/31 00:48:10;;;;;;;;;2.00;2.00;;;;;18.34;58.11;98815.00;4895513;28;103944;-59
2022/10/31 00:50:38;;;;;;;;;2.00;2.00;;;;;18.33;57.65;98813.34;4894313;28;102329;-59
2022/10/31 00:53:05;;;;;;;;;4.00;4.00;;;;;18.33;57.99;98821.53;4896016;28;102201;-59
2022/10/31 00:55:32;;;;;;;;;3.00;2.00;;;;;18.30;57.90;98816.56;4895439;28;102006;-59
2022/10/31 00:57:59;;;;;;;;;3.00;3.00;;;;;18.32;57.54;98819.06;4897518;28;104017;-59
2022/10/31 01:00:27;;;;;;;;;2.00;2.00;;;;;18.32;58.11;98822.66;4896266;28;102480;-59
2022/10/31 01:02:54;;;;;;;;;2.00;2.00;;;;;18.32;58.00;98817.16;4897105;28;103162;-59
2022/10/31 01:05:20;;;;;;;;;4.00;4.00;;;;;18.32;57.79;98822.66;4903336;28;102097;-59
2022/10/31 01:07:47;;;;;;;;;3.00;2.67;;;;;18.32;58.25;98821.81;4898035;28;107007;-59
2022/10/31 01:10:14;;;;;;;;;4.00;3.00;;;;;18.31;57.81;98826.47;4896369;28;102091;-59
2022/10/31 01:12:44;;;;;;;;;3.67;3.00;;;;;18.31;57.63;98826.47;4900675;28;102608;-59
2022/10/31 01:15:14;;;;;;;;;3.00;3.00;;;;;18.30;57.63;98827.53;4899926;28;102442;-59
2022/10/31 01:17:41;;;;;;;;;3.00;3.00;;;;;18.30;57.60;98819.31;4896713;28;104064;-59
2022/10/31 01:20:10;;;;;;;;;3.33;3.00;;;;;18.30;57.82;98822.06;4897576;28;101958;-59
2022/10/31 01:22:37;;;;;;;;;3.00;3.00;;;;;18.29;57.50;98823.13;4897566;28;102142;-59
2022/10/31 01:25:04;;;;;;;;;2.33;2.00;;;;;18.28;58.04;98819.53;4898924;28;102348;-59
2022/10/31 01:27:32;;;;;;;;;3.33;3.33;;;;;18.29;58.05;98817.66;4896617;28;104032;-59
2022/10/31 01:29:59;;;;;;;;;2.67;2.67;;;;;18.27;57.72;98820.66;4896855;28;102182;-59
2022/10/31 01:32:28;;;;;;;;;1.67;1.67;;;;;18.26;58.05;98826.34;4897414;28;102952;-59
2022/10/31 01:34:55;;;;;;;;;2.00;2.00;;;;;18.25;57.64;98825.53;4912130;28;102288;-59
2022/10/31 01:37:22;;;;;;;;;3.33;3.33;;;;;18.26;58.22;98818.97;4899180;28;104048;-59
2022/10/31 01:39:49;;;;;;;;;4.00;2.00;;;;;18.27;57.57;98819.81;4899476;28;102186;-59
2022/10/31 01:42:19;;;;;;;;;3.00;2.00;;;;;18.25;58.20;98814.56;4897860;28;102171;-59
2022/10/31 01:45:00;;;;;;;;;3.00;2.00;;;;;18.26;57.97;98818.97;4898222;28;102521;-59
2022/10/31 01:47:48;;;;;;;;;2.00;2.00;;;;;18.27;58.18;98817.06;4895813;28;108852;-59
2022/10/31 01:50:30;;;;;;;;;3.00;2.33;;;;;18.26;57.62;98812.66;4898896;28;102244;-59
2022/10/31 01:52:59;;;;;;;;;2.00;2.00;;;;;18.24;57.57;98810.16;4894910;28;102334;-59
2022/10/31 01:55:38;;;;;;;;;2.00;2.00;;;;;18.24;58.02;98815.63;4894801;28;102477;-59
2022/10/31 01:58:11;;;;;;;;;2.67;2.67;;;;;18.23;57.88;98818.66;4899907;28;104052;-59
2022/10/31 02:00:42;;;;;;;;;3.33;3.00;;;;;18.22;57.72;98816.97;4897025;28;102203;-59
2022/10/31 02:03:09;;;;;;;;;2.00;2.00;;;;;18.22;57.83;98809.59;4894006;28;102146;-59
2022/10/31 02:05:37;;;;;;;;;1.00;1.00;;;;;18.21;57.91;98821.63;4900548;28;102384;-59
2022/10/31 02:08:26;;;;;;;;;2.33;2.33;;;;;18.21;57.78;98809.84;4893028;28;103984;-59
2022/10/31 02:11:13;;;;;;;;;1.00;1.00;;;;;18.21;57.82;98820.78;4895468;28;102060;-59
2022/10/31 02:14:08;;;;;;;;;3.00;3.00;;;;;18.21;57.86;98809.84;4892236;28;102068;-59
2022/10/31 02:16:55;;;;;;;;;3.00;2.67;;;;;18.21;57.38;98815.31;4895342;28;102858;-59
2022/10/31 02:19:58;;;;;;;;;1.33;1.33;;;;;18.20;57.41;98814.47;4893785;28;108473;-59
2022/10/31 02:23:01;;;;;;;;;1.33;1.33;;;;;18.21;57.50;98809.84;4892874;28;102255;-59
2022/10/31 02:25:46;;;;;;;;;2.00;2.00;;;;;18.20;57.89;98810.91;4895418;28;102140;-59
2022/10/31 02:28:40;;;;;;;;;3.00;3.00;;;;;18.20;57.59;98808.16;4898221;28;102909;-59
2022/10/31 02:31:28;;;;;;;;;1.00;1.00;;;;;18.19;57.50;98810.06;4894976;28;108766;-59
2022/10/31 02:34:09;;;;;;;;;3.33;3.33;;;;;18.19;57.95;98817.47;4896257;28;102386;-59
2022/10/31 02:36:50;;;;;;;;;1.00;1.00;;;;;18.18;57.43;98818.53;4896155;28;102307;-59
2022/10/31 02:39:38;;;;;;;;;1.33;1.33;;;;;18.17;57.33;98819.63;4895378;28;103436;-59
2022/10/31 02:42:16;;;;;;;;;1.67;1.67;;;;;18.17;57.75;98834.13;4890185;28;108772;-59
2022/10/31 02:44:53;;;;;;;;;2.00;2.00;;;;;18.16;57.41;98821.50;4893873;28;111196;-59
2022/10/31 02:47:28;;;;;;;;;2.00;2.00;;;;;18.16;57.61;98831.63;4897116;28;102135;-59
2022/10/31 02:50:03;;;;;;;;;2.00;2.00;;;;;18.16;57.44;98831.63;4898177;28;102281;-59
2022/10/31 02:52:33;;;;;;;;;1.67;1.67;;;;;18.15;57.37;98830.78;4897262;28;104116;-59
2022/10/31 02:55:38;;;;;;;;;2.00;1.33;;;;;18.16;57.81;98837.09;4896100;28;102332;-59
2022/10/31 02:58:13;;;;;;;;;2.67;1.00;;;;;18.16;57.19;98834.38;4820130;29;102344;-59
2022/10/31 03:01:01;;;;;;;;;2.67;2.00;;;;;18.15;57.36;98840.91;4818935;29;102177;-59
2022/10/31 03:03:51;;;;;;;;;2.67;2.00;;;;;18.15;57.88;98829.97;4869414;28;108710;-59
2022/10/31 03:06:32;;;;;;;;;3.00;3.00;;;;;18.15;57.71;98841.75;4871020;28;102874;-59
2022/10/31 03:09:15;;;;;;;;;1.33;1.33;;;;;18.16;57.23;98842.56;4895304;28;102357;-59
2022/10/31 03:12:03;;;;;;;;;1.00;1.00;;;;;18.14;57.49;98836.53;4896531;28;102404;-59
2022/10/31 03:14:37;;;;;;;;;1.67;1.67;;;;;18.14;57.73;98844.75;4895510;28;108718;-60
2022/10/31 03:17:08;;;;;;;;;2.00;1.00;;;;;18.13;57.11;98838.44;4895700;28;102353;-59
2022/10/31 03:19:40;;;;;;;;;2.00;2.00;;;;;18.13;57.35;98837.59;4898205;28;102236;-59
2022/10/31 03:22:14;;;;;;;;;2.00;2.00;;;;;18.09;57.36;98836.44;4895908;28;102402;-59
2022/10/31 03:24:41;;;;;;;;;2.00;1.67;;;;;18.12;57.19;98839.50;4895884;28;104062;-59
2022/10/31 03:27:12;;;;;;;;;2.00;2.00;;;;;18.12;57.58;98846.88;4895403;28;102023;-59
2022/10/31 03:29:42;;;;;;;;;2.00;1.00;;;;;18.12;57.55;98838.66;4896334;28;102051;-59
2022/10/31 03:32:15;;;;;;;;;2.00;1.00;;;;;18.11;57.08;98837.00;4896674;28;102134;-59
2022/10/31 03:34:44;;;;;;;;;1.00;1.00;;;;;18.11;57.92;98845.22;4895635;28;104140;-59
2022/10/31 03:37:16;;;;;;;;;1.00;1.00;;;;;18.10;57.34;98835.34;4894463;28;102147;-59
2022/10/31 03:39:46;;;;;;;;;2.67;2.00;;;;;18.11;57.81;98839.72;4896408;28;102151;-59
2022/10/31 03:42:34;;;;;;;;;2.00;2.00;;;;;18.12;57.79;98841.41;4895836;28;107114;-59
2022/10/31 03:45:26;;;;;;;;;1.00;1.00;;;;;18.11;57.47;98842.47;4890827;28;108623;-59
2022/10/31 03:47:54;;;;;;;;;2.00;1.33;;;;;18.10;57.30;98851.78;4889265;28;101936;-60
2022/10/31 03:50:24;;;;;;;;;2.00;2.00;;;;;18.10;57.76;98857.25;4892340;28;102335;-59
2022/10/31 03:53:01;;;;;;;;;1.00;1.00;;;;;18.08;57.89;98854.75;4896771;28;102055;-59
2022/10/31 03:55:42;;;;;;;;;1.67;1.67;;;;;18.09;57.27;98850.09;4896565;28;108737;-59
2022/10/31 03:58:17;;;;;;;;;1.67;1.67;;;;;18.07;57.44;98858.56;4897320;28;102376;-59
2022/10/31 04:00:49;;;;;;;;;2.00;1.67;;;;;18.08;57.75;98859.38;4896156;28;102498;-59
2022/10/31 04:03:27;;;;;;;;;1.00;1.00;;;;;18.07;57.18;98858.56;4894465;28;103767;-60
2022/10/31 04:05:56;;;;;;;;;1.00;1.00;;;;;18.06;57.12;98861.53;4898860;28;108743;-59
2022/10/31 04:08:28;;;;;;;;;2.00;2.00;;;;;18.06;57.01;98864.25;4898404;28;102136;-59
2022/10/31 04:10:57;;;;;;;;;0.00;0.00;;;;;18.05;57.35;98860.72;4897193;28;102908;-59
2022/10/31 04:13:29;;;;;;;;;1.00;1.00;;;;;18.06;57.88;98869.72;4898897;28;102174;-59
2022/10/31 04:15:57;;;;;;;;;2.00;2.00;;;;;18.05;56.95;98871.66;4897803;28;108826;-59
2022/10/31 04:18:24;;;;;;;;;1.33;1.33;;;;;18.05;57.50;98871.66;4900430;28;102029;-59
2022/10/31 04:21:01;;;;;;;;;1.33;1.33;;;;;18.06;57.00;98872.47;4899582;28;101946;-59
2022/10/31 04:23:28;;;;;;;;;1.00;1.00;;;;;18.04;57.53;98864.53;4897542;28;102412;-59
2022/10/31 04:25:55;;;;;;;;;1.00;1.00;;;;;18.05;57.50;98865.34;4900678;28;104176;-59
2022/10/31 04:28:22;;;;;;;;;1.00;1.00;;;;;18.03;57.23;98873.81;4900236;28;102197;-59
2022/10/31 04:30:50;;;;;;;;;1.00;1.00;;;;;18.03;57.36;98868.31;4896750;28;103455;-59
2022/10/31 04:33:17;;;;;;;;;1.67;1.00;;;;;18.03;57.15;98872.97;4900976;28;102009;-59
2022/10/31 04:35:45;;;;;;;;;2.00;2.00;;;;;18.03;57.45;98878.44;4897659;28;104136;-59
2022/10/31 04:38:12;;;;;;;;;2.00;1.00;;;;;18.04;56.99;98874.63;4898222;28;102213;-59
2022/10/31 04:40:39;;;;;;;;;2.00;2.00;;;;;18.02;57.04;98877.59;4897170;28;103626;-59
2022/10/31 04:43:06;;;;;;;;;1.00;1.00;;;;;18.02;57.56;98877.59;4898503;28;104653;-59
2022/10/31 04:45:33;;;;;;;;;1.00;1.00;;;;;18.02;57.23;98868.56;4896604;28;104181;-59
2022/10/31 04:47:59;;;;;;;;;1.00;1.00;;;;;18.01;57.16;98873.19;4897845;28;102418;-59
2022/10/31 04:50:27;;;;;;;;;1.00;1.00;;;;;18.01;57.17;98872.41;4898132;28;102174;-59
2022/10/31 04:52:54;;;;;;;;;2.00;1.67;;;;;18.00;57.42;98868.81;4900140;28;102348;-59
2022/10/31 04:55:21;;;;;;;;;1.00;1.00;;;;;18.00;57.22;98862.50;4898731;28;109013;-59
2022/10/31 04:57:50;;;;;;;;;1.00;1.00;;;;;18.01;57.26;98875.13;4899939;28;102362;-59
2022/10/31 05:00:20;;;;;;;;;1.00;1.00;;;;;18.00;57.13;98873.47;4895026;28;102216;-59
2022/10/31 05:02:49;;;;;;;;;5.00;1.00;;;;;18.01;57.44;98861.44;4898570;28;103232;-59
2022/10/31 05:05:18;;;;;;;;;1.00;1.00;;;;;18.01;57.36;98866.91;4896343;28;104013;-59
2022/10/31 05:07:46;;;;;;;;;1.67;1.33;;;;;18.00;57.18;98873.47;4898926;28;102147;-59
2022/10/31 05:10:16;;;;;;;;;1.67;1.00;;;;;17.99;56.76;98863.59;4897919;28;102240;-59
2022/10/31 05:12:52;;;;;;;;;1.00;1.00;;;;;17.99;56.71;98861.69;4898784;28;102484;-59
2022/10/31 05:15:21;;;;;;;;;1.33;1.33;;;;;17.98;56.97;98870.94;4897011;28;104018;-59
2022/10/31 05:17:48;;;;;;;;;2.00;1.00;;;;;17.99;56.97;98874.53;4896360;28;102380;-59
2022/10/31 05:20:17;;;;;;;;;1.00;1.00;;;;;17.97;57.38;98872.03;4897622;28;102396;-59
2022/10/31 05:22:46;;;;;;;;;1.00;1.00;;;;;17.97;57.02;98873.91;4898618;28;103424;-59
2022/10/31 05:25:13;;;;;;;;;1.00;1.00;;;;;17.97;57.49;98871.19;4896494;28;104060;-59
2022/10/31 05:27:45;;;;;;;;;1.00;1.00;;;;;17.97;57.07;98872.03;4897692;28;102254;-59
2022/10/31 05:30:15;;;;;;;;;2.33;2.00;;;;;17.96;57.70;98881.31;4898058;28;104087;-60
2022/10/31 05:32:44;;;;;;;;;1.00;1.00;;;;;17.96;57.29;98883.22;4897257;28;102165;-59
2022/10/31 05:35:13;;;;;;;;;2.33;1.67;;;;;17.96;56.96;98891.44;4897515;28;104533;-59
2022/10/31 05:37:40;;;;;;;;;2.67;1.00;;;;;17.95;57.28;98881.56;4896031;28;102083;-60
2022/10/31 05:40:10;;;;;;;;;1.00;1.00;;;;;17.95;57.17;98884.28;4898089;28;102246;-60
2022/10/31 05:42:41;;;;;;;;;3.00;2.00;;;;;17.95;57.54;98893.34;4896394;28;102214;-59
2022/10/31 05:45:13;;;;;;;;;2.00;2.00;;;;;17.95;56.96;98897.97;4896409;28;104026;-59
2022/10/31 05:47:41;;;;;;;;;2.00;1.00;;;;;17.94;56.73;98893.56;4894458;28;102314;-59
2022/10/31 05:50:09;;;;;;;;;2.00;1.00;;;;;17.94;57.01;98891.66;4895725;28;103754;-59
2022/10/31 05:52:36;;;;;;;;;1.00;1.00;;;;;17.95;56.76;98900.72;4898407;28;102945;-59
2022/10/31 05:55:03;;;;;;;;;1.00;1.00;;;;;17.93;57.32;98900.94;4895920;28;103978;-59
2022/10/31 05:57:32;;;;;;;;;1.00;1.00;;;;;17.93;56.89;98902.84;4902229;28;102262;-59
2022/10/31 05:59:59;;;;;;;;;1.00;1.00;;;;;17.93;57.26;98906.41;4897895;28;102212;-59
2022/10/31 06:02:26;;;;;;;;;1.00;0.00;;;;;17.93;56.99;98908.31;4898747;28;102501;-59
2022/10/31 06:04:53;;;;;;;;;1.33;1.33;;;;;17.92;56.78;98907.47;4898837;28;104039;-59
2022/10/31 06:07:20;;;;;;;;;1.00;1.00;;;;;17.92;56.76;98901.19;4892388;28;102206;-59
2022/10/31 06:09:47;;;;;;;;;1.67;1.67;;;;;17.92;57.43;98909.41;4896324;28;102306;-59
2022/10/31 06:12:14;;;;;;;;;1.33;1.33;;;;;17.93;56.74;98905.56;4896672;28;102352;-59
2022/10/31 06:14:41;;;;;;;;;1.00;1.00;;;;;17.92;56.86;98917.63;4895997;28;104237;-59
2022/10/31 06:17:08;;;;;;;;;2.00;2.00;;;;;17.91;57.31;98918.69;4893633;28;102373;-59
2022/10/31 06:19:34;;;;;;;;;2.00;2.00;;;;;17.91;56.70;98915.94;4897374;28;102066;-59
2022/10/31 06:22:01;;;;;;;;;1.00;1.00;;;;;17.92;56.83;98920.34;4901091;28;102053;-59
2022/10/31 06:24:28;;;;;;;;;2.00;1.67;;;;;17.91;57.00;98921.41;4895781;28;103738;-59
2022/10/31 06:26:55;;;;;;;;;2.00;1.00;;;;;17.92;56.97;98926.63;4899964;28;101786;-59
2022/10/31 06:29:22;;;;;;;;;1.33;1.00;;;;;17.91;56.61;98924.16;4896255;28;102063;-59
2022/10/31 06:31:51;;;;;;;;;1.00;1.00;;;;;17.91;57.13;98921.41;4897277;28;102088;-59
2022/10/31 06:34:18;;;;;;;;;1.67;1.67;;;;;17.91;56.61;98929.63;4897417;28;104125;-59
2022/10/31 06:36:46;;;;;;;;;1.67;1.00;;;;;17.91;56.67;98924.16;4896585;28;101954;-59
2022/10/31 06:39:14;;;;;;;;;2.33;2.00;;;;;17.91;56.77;98924.16;4898194;28;102359;-59
2022/10/31 06:41:41;;;;;;;;;1.00;1.00;;;;;17.91;56.78;98921.41;4898551;28;101984;-59
2022/10/31 06:44:08;;;;;;;;;2.00;1.00;;;;;17.89;57.40;98923.53;4913182;28;104022;-60
2022/10/31 06:46:35;;;;;;;;;1.00;1.00;;;;;17.89;57.09;98931.75;4898883;28;102119;-59
2022/10/31 06:49:02;;;;;;;;;1.00;1.00;;;;;17.89;57.27;98938.06;4889521;28;102880;-59
2022/10/31 06:51:29;;;;;;;;;1.00;1.00;;;;;17.89;57.34;98931.75;4894630;28;102295;-59
2022/10/31 06:53:55;;;;;;;;;2.00;1.00;;;;;17.90;57.24;98936.16;4898263;28;104029;-59
2022/10/31 06:56:22;;;;;;;;;1.67;1.00;;;;;17.89;57.10;98934.50;4897327;28;102061;-59
2022/10/31 06:58:49;;;;;;;;;1.00;1.00;;;;;17.89;57.05;98938.06;4902809;28;102184;-60
2022/10/31 07:01:16;;;;;;;;;2.00;2.00;;;;;17.90;57.19;98933.44;4898412;28;102395;-59
2022/10/31 07:03:43;;;;;;;;;2.00;1.00;;;;;17.90;57.11;98938.91;4901334;28;103922;-59
2022/10/31 07:06:10;;;;;;;;;1.67;1.67;;;;;17.90;56.87;98944.38;4895361;28;102392;-59
2022/10/31 07:08:37;;;;;;;;;2.00;2.00;;;;;17.89;56.89;98945.44;4896598;28;101980;-59
2022/10/31 07:11:04;;;;;;;;;1.00;1.00;;;;;17.89;57.05;98943.53;4894006;28;103155;-59
2022/10/31 07:13:31;;;;;;;;;1.00;1.00;;;;;17.89;56.60;98954.47;4897468;28;104892;-60
2022/10/31 07:16:06;;;;;;;;;2.00;2.00;;;;;17.90;57.07;98952.56;4895737;28;102264;-59
2022/10/31 07:18:34;;;;;;;;;1.33;1.00;;;;;17.91;56.90;98959.72;4897355;28;102325;-59
2022/10/31 07:21:01;;;;;;;;;3.00;2.67;;;;;17.89;57.26;98954.47;4897244;28;102316;-59
2022/10/31 07:23:27;;;;;;;;;2.33;2.33;;;;;17.90;56.75;98956.16;4897728;28;104069;-59
2022/10/31 07:25:56;;;;;;;;;1.33;1.33;;;;;17.90;57.06;98961.63;4899171;28;101870;-59
2022/10/31 07:28:23;;;;;;;;;3.00;3.00;;;;;17.90;57.25;98955.31;4896808;28;102852;-59
2022/10/31 07:30:51;;;;;;;;;2.67;2.33;;;;;17.90;56.44;98953.41;4897746;28;102188;-59
2022/10/31 07:33:19;;;;;;;;;2.00;2.00;;;;;17.90;56.91;98967.09;4893857;28;104318;-59
2022/10/31 07:35:45;;;;;;;;;2.00;2.00;;;;;17.91;57.04;98959.72;4893307;28;102250;-59
2022/10/31 07:38:14;;;;;;;;;2.00;2.00;;;;;17.92;56.75;98964.13;4895527;28;102285;-59
2022/10/31 07:40:42;;;;;;;;;3.00;3.00;;;;;17.91;56.69;98966.03;4874925;28;102221;-59
2022/10/31 07:43:12;;;;;;;;;3.00;2.00;;;;;17.92;57.22;98969.59;4894592;28;104147;-59
2022/10/31 07:45:40;;;;;;;;;2.33;2.33;;;;;17.92;56.81;98970.41;4886000;28;102135;-59
2022/10/31 07:48:07;;;;;;;;;4.00;4.00;;;;;17.93;57.05;98965.78;4896423;28;101852;-59
2022/10/31 07:50:34;;;;;;;;;3.67;3.00;;;;;17.93;56.56;98968.50;4894951;28;102408;-59
2022/10/31 07:53:05;;;;;;;;;3.00;3.00;;;;;17.92;56.97;98973.13;4887873;28;103671;-59
2022/10/31 07:55:32;;;;;;;;;3.00;2.00;;;;;17.94;56.83;98971.00;4893778;28;103521;-59
2022/10/31 07:58:01;;;;;;;;;2.00;2.00;;;;;17.94;56.74;98965.53;4893923;28;103072;-59
2022/10/31 08:00:29;;;;;;;;;3.33;3.33;;;;;17.94;56.60;98964.69;4893157;28;102615;-60
2022/10/31 08:02:58;;;;;;;;;3.67;3.00;;;;;17.94;56.79;98967.44;4894031;28;104286;-59
2022/10/31 08:05:26;;;;;;;;;3.33;3.00;;;;;17.93;57.26;98966.59;4894522;28;101938;-59
2022/10/31 08:07:53;;;;;;;;;5.00;4.00;;;;;17.94;56.96;98964.69;4893120;28;103802;-59
2022/10/31 08:10:21;;;;;;;;;2.67;2.67;;;;;17.93;56.76;98965.78;4896270;28;102169;-60
2022/10/31 08:12:59;;;;;;;;;3.00;3.00;;;;;17.94;57.12;98961.97;4891255;28;104327;-60
2022/10/31 08:15:26;;;;;;;;;4.67;4.00;;;;;17.94;56.87;98961.97;4890719;28;102102;-59
2022/10/31 08:17:54;;;;;;;;;4.00;4.00;;;;;17.94;57.42;98968.28;4894798;28;102237;-60
2022/10/31 08:20:21;;;;;;;;;3.67;3.67;;;;;17.94;56.92;98967.44;4896131;28;103177;-60
2022/10/31 08:22:59;;;;;;;;;3.50;2.50;;;;;17.94;57.11;98962.81;4899987;28;104148;-59
2022/10/31 08:25:29;;;;;;;;;3.33;3.33;;;;;17.93;57.14;98960.28;4895613;28;104920;-59
2022/10/31 08:28:03;;;;;;;;;3.00;3.00;;;;;17.92;57.54;98969.59;4903947;28;102032;-59
2022/10/31 08:30:32;;;;;;;;;3.00;2.67;;;;;17.95;56.77;98969.94;4896319;28;102356;-60
2022/10/31 08:33:10;;;;;;;;;3.00;3.00;;;;;17.95;56.94;98963.63;4895963;28;104337;-60
2022/10/31 08:35:37;;;;;;;;;5.00;4.00;;;;;17.96;57.01;98968.03;4903918;28;102216;-60
2022/10/31 08:38:05;;;;;;;;;3.00;3.00;;;;;17.95;56.48;98972.69;4893858;28;102823;-59
2022/10/31 08:40:32;;;;;;;;;4.67;4.00;;;;;17.96;57.01;98954.38;4907285;28;102067;-59
2022/10/31 08:43:13;;;;;;;;;3.00;3.00;;;;;17.96;56.80;98968.03;4906958;28;104049;-59
2022/10/31 08:45:42;;;;;;;;;4.00;4.00;;;;;17.97;57.42;98973.25;4897545;28;102384;-59
2022/10/31 08:48:14;;;;;;;;;3.00;3.00;;;;;17.97;57.09;98958.75;4905133;28;102187;-59
2022/10/31 08:50:45;;;;;;;;;3.00;3.00;;;;;17.96;56.59;98965.31;4899368;28;102933;-60
2022/10/31 08:53:18;;;;;;;;;3.00;3.00;;;;;17.97;57.17;98961.47;4895850;28;104151;-60
2022/10/31 08:55:46;;;;;;;;;3.67;3.00;;;;;17.97;56.92;98967.78;4896181;28;102653;-60
2022/10/31 08:58:18;;;;;;;;;4.00;4.00;;;;;17.96;57.36;98963.41;4897095;28;102141;-59
2022/10/31 09:00:47;;;;;;;;;4.33;4.00;;;;;17.97;56.94;98966.94;4901869;28;102350;-59
2022/10/31 09:03:19;;;;;;;;;3.00;3.00;;;;;17.98;56.98;98957.69;4893622;28;104310;-59
2022/10/31 09:05:47;;;;;;;;;3.00;3.00;;;;;17.98;56.65;98977.66;4894963;28;102170;-59
2022/10/31 09:08:17;;;;;;;;;4.00;4.00;;;;;17.99;56.87;98970.28;4892863;28;103572;-59
2022/10/31 09:10:45;;;;;;;;;4.00;3.00;;;;;17.98;56.50;98979.56;4897219;28;102202;-59
2022/10/31 09:13:17;;;;;;;;;3.33;3.00;;;;;17.98;57.07;98977.66;4902942;28;103964;-59
2022/10/31 09:15:46;;;;;;;;;4.00;3.67;;;;;17.99;56.63;98975.75;4898834;28;102340;-59
2022/10/31 09:18:16;;;;;;;;;3.33;3.33;;;;;17.98;56.83;98985.88;4906192;28;102163;-59
2022/10/31 09:20:45;;;;;;;;;4.00;4.00;;;;;17.99;57.02;98978.50;4900483;28;103488;-60
2022/10/31 09:23:20;;;;;;;;;3.00;3.00;;;;;17.99;56.68;98975.75;4892703;28;104005;-60
2022/10/31 09:25:48;;;;;;;;;4.00;3.67;;;;;18.00;57.13;98980.16;4908654;28;102251;-59
2022/10/31 09:28:19;;;;;;;;;3.00;3.00;;;;;17.99;57.11;98981.25;4911124;28;101999;-60
2022/10/31 09:30:48;;;;;;;;;5.00;4.00;;;;;17.99;56.85;98976.59;4907401;28;102403;-60
2022/10/31 09:33:16;;;;;;;;;3.33;3.00;;;;;18.00;56.48;98974.69;4911128;28;103997;-59
2022/10/31 09:35:43;;;;;;;;;3.00;3.00;;;;;18.00;56.85;98980.16;4904628;28;102040;-60
2022/10/31 09:38:15;;;;;;;;;3.00;3.00;;;;;18.01;56.70;98973.63;4904060;28;101836;-59
2022/10/31 09:40:45;;;;;;;;;3.67;3.67;;;;;18.01;57.22;98979.09;4907419;28;101827;-60
2022/10/31 09:43:15;;;;;;;;;4.33;4.00;;;;;18.02;56.51;98972.53;4903969;28;105495;-59
2022/10/31 09:45:53;;;;;;;;;2.00;2.00;;;;;18.01;57.26;98974.44;4903265;28;101988;-60
2022/10/31 09:48:54;;;;;;;;;3.00;3.00;;;;;18.02;57.33;98980.75;4897727;28;101910;-60
2022/10/31 09:51:37;;;;;;;;;4.00;3.00;;;;;18.03;57.04;98971.47;4899079;28;102482;-62
2022/10/31 09:54:15;;;;;;;;;4.00;4.00;;;;;18.04;56.98;98978.63;4890078;28;108672;-60
2022/10/31 09:56:45;;;;;;;;;4.00;3.33;;;;;18.04;56.75;98967.66;4895353;28;102084;-59
2022/10/31 09:59:31;;;;;;;;;2.00;2.00;;;;;18.05;56.32;98980.28;4902714;28;102458;-60
2022/10/31 10:02:06;;;;;;;;;4.00;3.00;;;;;18.04;56.43;98968.50;4912925;28;102363;-59
2022/10/31 10:04:42;;;;;;;;;5.33;4.67;;;;;18.05;56.65;98972.09;4897519;28;104052;-59
2022/10/31 10:07:49;;;;;;;;;3.33;3.33;;;;;18.05;57.11;98972.09;4906827;28;102121;-60
2022/10/31 10:10:55;;;;;;;;;4.00;4.00;;;;;18.06;56.90;98965.50;4892061;28;103040;-60
2022/10/31 10:13:46;;;;;;;;;4.00;4.00;;;;;18.06;56.93;98981.94;4900076;28;102346;-60
2022/10/31 10:16:23;;;;;;;;;6.00;5.33;;;;;18.05;57.37;98969.34;4897518;28;108677;-59
2022/10/31 10:19:11;;;;;;;;;6.00;5.33;;;;;18.02;57.38;98976.13;4896044;28;102250;-59
2022/10/31 10:21:39;;;;;;;;;4.00;4.00;;;;;18.06;57.28;98966.34;4893576;28;102469;-59
2022/10/31 10:24:45;;;;;;;;;3.33;3.33;;;;;18.09;56.48;98965.06;4898600;28;102085;-59
2022/10/31 10:27:27;;;;;;;;;4.00;3.33;;;;;18.10;56.75;98966.72;4893577;28;108840;-59
2022/10/31 10:30:14;;;;;;;;;3.00;3.00;;;;;18.12;57.33;98967.28;4900804;28;101990;-59
2022/10/31 10:32:47;;;;;;;;;4.67;4.00;;;;;18.12;56.95;98961.81;4903904;28;102039;-59
2022/10/31 10:35:21;;;;;;;;;5.33;4.33;;;;;18.12;57.22;98959.91;4902549;28;102488;-59
2022/10/31 10:37:54;;;;;;;;;2.00;2.00;;;;;18.13;56.99;98958.03;4907653;28;104171;-58
2022/10/31 10:40:25;;;;;;;;;2.33;2.33;;;;;18.13;57.46;98966.22;4915024;28;102158;-60
2022/10/31 10:43:23;;;;;;;;;4.00;4.00;;;;;18.12;58.62;98959.09;4892364;28;102322;-58
2022/10/31 10:49:04;;;;;;;;;5.33;4.67;;;;;18.14;57.30;98949.59;4891259;28;108714;-59
2022/10/31 10:51:39;;;;;;;;;5.00;5.00;;;;;18.16;56.95;98950.16;4890072;28;102743;-61
2022/10/31 10:54:46;;;;;;;;;4.67;4.67;;;;;18.19;57.54;98949.66;4897589;28;102243;-61
2022/10/31 10:57:44;;;;;;;;;6.00;4.67;;;;;18.21;57.14;98947.53;4896469;28;102390;-61
2022/10/31 11:00:27;;;;;;;;;3.00;3.00;;;;;18.24;57.58;98952.50;4888745;28;108696;-60
2022/10/31 11:02:55;;;;;;;;;4.00;4.00;;;;;18.25;57.72;98945.97;4894270;28;103600;-60
2022/10/31 11:05:40;;;;;;;;;5.33;4.00;;;;;18.27;57.65;98946.56;4897249;28;104088;-60
2022/10/31 11:08:22;;;;;;;;;4.00;4.00;;;;;18.31;57.85;98946.91;4897254;28;102450;-60
2022/10/31 11:11:00;;;;;;;;;5.67;4.00;;;;;18.34;57.55;98948.31;4890525;28;108946;-61
2022/10/31 11:13:28;;;;;;;;;5.00;4.00;;;;;18.34;57.99;98943.69;4892072;28;101972;-61
2022/10/31 11:16:04;;;;;;;;;4.00;4.00;;;;;18.35;57.53;98937.13;4903104;28;102323;-60
2022/10/31 11:18:36;;;;;;;;;7.00;6.00;;;;;18.37;57.40;98934.97;4893438;28;103206;-60
2022/10/31 11:21:05;;;;;;;;;5.33;5.33;;;;;18.39;57.08;98930.09;4894577;28;102845;-61
2022/10/31 11:23:33;;;;;;;;;7.00;6.00;;;;;18.39;57.21;98932.84;4890196;28;101863;-61
2022/10/31 11:26:03;;;;;;;;;7.00;5.00;;;;;18.41;56.60;98930.69;4895239;28;102424;-60
2022/10/31 11:28:34;;;;;;;;;6.67;6.00;;;;;18.43;56.48;98925.78;4894147;28;102979;-60
2022/10/31 11:31:21;;;;;;;;;6.33;5.67;;;;;18.43;56.49;98931.28;4886341;28;104067;-60
2022/10/31 11:34:00;;;;;;;;;7.00;5.67;;;;;18.46;56.77;98924.50;4886882;28;102422;-60
2022/10/31 11:36:32;;;;;;;;;5.00;5.00;;;;;18.47;56.50;98926.97;4889910;28;102355;-60
2022/10/31 11:39:03;;;;;;;;;7.33;6.67;;;;;18.49;56.69;98924.81;4886622;28;102226;-59
2022/10/31 11:41:34;;;;;;;;;9.67;8.67;;;;;18.54;56.79;98929.59;4890527;28;103910;-59
2022/10/31 11:44:13;;;;;;;;;8.00;8.00;;;;;18.57;56.68;98924.47;4890343;28;103669;-59
2022/10/31 11:46:53;;;;;;;;;9.00;8.00;;;;;18.64;57.91;98927.06;4891399;28;102345;-58
2022/10/31 11:49:42;;;;;;;;;6.00;5.00;;;;;18.71;57.20;98920.34;4891378;28;103551;-59
2022/10/31 11:52:20;;;;;;;;;5.33;5.00;;;;;18.78;56.27;98919.38;4891398;28;108615;-59